Ioka, Utah
Current Conditions -  °F | °C
As of 5:53 AM on Sunday 21 Dec 2014 (Local Time) from KVEL Reporting Station
Haze Haze  
Wind Chill: 28°   Ceiling: 3200
Heat Index: 28°   Visibility: 5mi
Dew Point: 28°   Wind: 3mph
Humidity: 100%   Direction: 110°ESE
Pressure: 29.98"   Gusts: NA
Location:  40.5914°N, 110.379°W
Report Text: KVEL 211253Z AUTO 11003KT 5SM BR FEW017 OVC032 M02/M02 A2998 RMK AO2 SLP176 T10221022
Loading
Personal Weather Stations






























Interactive Weather Map New forecast layout! Learn more

10-Day Weather Forecast

Advertisements
Track Severe Weather on mobile